Time;durP1;ratioP1;P1;durP2;ratioP2;P2;SDS_P1;SDS_P2;PMS_P1;PMS_P2;Temp;Humidity;BMP_temperature;BMP_pressure;BME280_temperature;BME280_humidity;BME280_pressure;Samples;Min_cycle;Max_cycle;Signal;HPM_P1;HPM_P2
2021/01/27 00:00:11;;;;;;;40.40;21.05;;;;;;;;;;5013901;28;20033;-60
2021/01/27 00:02:37;;;;;;;37.92;21.52;;;;;;;;;;5015814;28;20080;-63
2021/01/27 00:05:04;;;;;;;38.88;21.27;;;;;;;;;;5015482;28;20029;-62
2021/01/27 00:07:30;;;;;;;38.17;20.65;;;;;;;;;;5015454;28;20026;-62
2021/01/27 00:09:56;;;;;;;36.05;19.40;;;;;;;;;;5015356;28;20076;-63
2021/01/27 00:12:22;;;;;;;40.92;21.48;;;;;;;;;;5015706;28;20025;-61
2021/01/27 00:14:48;;;;;;;41.92;22.40;;;;;;;;;;5015835;28;20029;-62
2021/01/27 00:17:14;;;;;;;44.22;21.35;;;;;;;;;;5014379;28;20048;-63
2021/01/27 00:19:40;;;;;;;40.33;22.00;;;;;;;;;;5015498;28;20035;-63
2021/01/27 00:22:06;;;;;;;35.45;19.38;;;;;;;;;;5015434;28;20022;-63
2021/01/27 00:24:32;;;;;;;37.13;19.35;;;;;;;;;;5015574;28;20510;-63
2021/01/27 00:26:58;;;;;;;38.03;20.60;;;;;;;;;;5015065;28;20026;-62
2021/01/27 00:29:26;;;;;;;38.92;20.60;;;;;;;;;;5015111;28;20432;-62
2021/01/27 00:31:52;;;;;;;40.45;20.73;;;;;;;;;;5015140;28;20021;-62
2021/01/27 00:34:20;;;;;;;39.08;21.05;;;;;;;;;;5046996;28;20030;-61
2021/01/27 00:36:47;;;;;;;36.53;19.58;;;;;;;;;;5015187;28;20050;-61
2021/01/27 00:39:13;;;;;;;37.25;20.63;;;;;;;;;;5014557;28;20030;-61
2021/01/27 00:41:40;;;;;;;32.60;19.75;;;;;;;;;;5015061;28;20029;-62
2021/01/27 00:44:06;;;;;;;36.15;20.92;;;;;;;;;;5015045;28;20172;-62
2021/01/27 00:46:32;;;;;;;37.05;19.90;;;;;;;;;;5014760;28;20025;-62
2021/01/27 00:48:58;;;;;;;33.50;19.30;;;;;;;;;;5014656;28;20111;-61
2021/01/27 00:51:24;;;;;;;34.95;18.95;;;;;;;;;;5014920;28;20030;-62
2021/01/27 00:53:50;;;;;;;33.75;19.27;;;;;;;;;;5014260;28;20489;-61
2021/01/27 00:56:18;;;;;;;32.83;18.83;;;;;;;;;;5014825;28;20053;-61
2021/01/27 00:58:44;;;;;;;32.85;19.08;;;;;;;;;;5015108;28;20409;-61
2021/01/27 01:01:10;;;;;;;33.17;19.10;;;;;;;;;;5014178;28;20022;-61
2021/01/27 01:03:36;;;;;;;34.28;18.17;;;;;;;;;;5014441;28;20021;-61
2021/01/27 01:06:03;;;;;;;33.58;19.40;;;;;;;;;;5014632;28;20025;-61
2021/01/27 01:08:29;;;;;;;30.20;18.55;;;;;;;;;;5014938;28;20057;-62
2021/01/27 01:10:59;;;;;;;33.42;18.52;;;;;;;;;;5014316;28;20053;-62
2021/01/27 01:13:26;;;;;;;33.58;18.95;;;;;;;;;;5014226;28;20030;-63
2021/01/27 01:15:53;;;;;;;31.52;19.13;;;;;;;;;;5014252;28;20022;-61
2021/01/27 01:18:19;;;;;;;32.65;19.70;;;;;;;;;;5014505;28;20018;-62
2021/01/27 01:20:47;;;;;;;32.83;19.80;;;;;;;;;;5013909;28;20030;-61
2021/01/27 01:23:14;;;;;;;32.28;19.65;;;;;;;;;;5015004;28;20037;-60
2021/01/27 01:25:40;;;;;;;32.55;19.58;;;;;;;;;;5014355;28;20025;-61
2021/01/27 01:28:07;;;;;;;30.45;17.30;;;;;;;;;;5013811;28;20466;-61
2021/01/27 01:30:40;;;;;;;30.75;16.67;;;;;;;;;;5014286;28;20100;-61
2021/01/27 01:33:08;;;;;;;27.67;17.17;;;;;;;;;;5014140;28;20033;-61
2021/01/27 01:35:34;;;;;;;28.02;16.88;;;;;;;;;;5013957;28;20030;-61
2021/01/27 01:38:00;;;;;;;27.42;15.77;;;;;;;;;;5014173;28;20101;-61
2021/01/27 01:40:34;;;;;;;27.65;15.85;;;;;;;;;;5014131;28;20030;-60
2021/01/27 01:43:04;;;;;;;28.45;16.30;;;;;;;;;;5013664;28;20093;-61
2021/01/27 01:45:35;;;;;;;25.10;15.02;;;;;;;;;;5013863;28;20377;-62
2021/01/27 01:48:14;;;;;;;27.15;15.38;;;;;;;;;;5014065;28;20022;-61
2021/01/27 01:50:41;;;;;;;23.48;14.57;;;;;;;;;;5014325;28;20157;-62
2021/01/27 01:53:07;;;;;;;21.92;14.07;;;;;;;;;;5013560;28;20100;-61
2021/01/27 01:55:33;;;;;;;26.35;15.07;;;;;;;;;;5014029;28;20022;-61
2021/01/27 01:58:00;;;;;;;22.42;14.95;;;;;;;;;;5014439;28;20378;-61
2021/01/27 02:00:27;;;;;;;23.42;14.48;;;;;;;;;;5014115;28;20031;-63
2021/01/27 02:02:53;;;;;;;24.98;15.15;;;;;;;;;;5014013;28;20100;-62
2021/01/27 02:05:21;;;;;;;24.75;15.00;;;;;;;;;;5013955;28;20029;-61
2021/01/27 02:07:47;;;;;;;22.83;14.95;;;;;;;;;;5013680;28;20084;-61
2021/01/27 02:10:15;;;;;;;21.20;14.13;;;;;;;;;;5013333;28;20050;-62
2021/01/27 02:12:47;;;;;;;21.83;14.40;;;;;;;;;;5013648;28;20026;-61
2021/01/27 02:15:23;;;;;;;23.65;14.77;;;;;;;;;;5013877;28;20439;-60
2021/01/27 02:17:55;;;;;;;22.52;14.63;;;;;;;;;;5013639;28;20068;-61
2021/01/27 02:20:21;;;;;;;;;;;;;;;;;;5014325;28;20025;-61
2021/01/27 02:23:00;;;;;;;22.45;14.15;;;;;;;;;;5013708;28;19905;-61
2021/01/27 02:25:38;;;;;;;23.33;15.13;;;;;;;;;;5013866;28;20041;-61
2021/01/27 02:28:07;;;;;;;22.27;14.18;;;;;;;;;;5013466;28;20101;-61
2021/01/27 02:30:36;;;;;;;23.02;13.88;;;;;;;;;;5013441;28;20096;-61
2021/01/27 02:33:08;;;;;;;24.70;15.05;;;;;;;;;;5013362;28;20022;-61
2021/01/27 02:35:39;;;;;;;21.85;14.57;;;;;;;;;;5013706;28;20108;-61
2021/01/27 02:38:19;;;;;;;24.63;14.57;;;;;;;;;;5013305;28;20025;-61
2021/01/27 02:40:51;;;;;;;24.77;15.30;;;;;;;;;;5015590;28;20109;-61
2021/01/27 02:43:24;;;;;;;26.52;15.20;;;;;;;;;;5017023;28;20022;-61
2021/01/27 02:46:02;;;;;;;23.48;14.93;;;;;;;;;;5016797;28;20018;-61
2021/01/27 02:48:32;;;;;;;24.00;14.32;;;;;;;;;;5017280;28;20022;-61
2021/01/27 02:51:06;;;;;;;24.10;15.07;;;;;;;;;;5017190;28;20036;-61
2021/01/27 02:53:40;;;;;;;23.08;14.35;;;;;;;;;;5017076;28;20149;-61
2021/01/27 02:56:22;;;;;;;23.73;15.00;;;;;;;;;;5017277;28;20384;-61
2021/01/27 02:58:57;;;;;;;22.60;14.45;;;;;;;;;;5016983;28;20055;-61
2021/01/27 03:01:34;;;;;;;23.92;14.75;;;;;;;;;;5017289;28;20064;-61
2021/01/27 03:04:03;;;;;;;25.42;14.00;;;;;;;;;;5017285;28;20028;-61
2021/01/27 03:06:29;;;;;;;21.75;13.82;;;;;;;;;;5016576;28;20022;-61
2021/01/27 03:08:59;;;;;;;24.33;15.32;;;;;;;;;;5016581;28;20026;-61
2021/01/27 03:11:28;;;;;;;26.02;16.92;;;;;;;;;;5016923;28;20071;-61
2021/01/27 03:13:54;;;;;;;23.50;15.73;;;;;;;;;;5016415;28;20065;-61
2021/01/27 03:16:20;;;;;;;25.52;16.55;;;;;;;;;;5016688;28;20121;-61
2021/01/27 03:18:52;;;;;;;25.38;17.00;;;;;;;;;;5017189;28;20389;-61
2021/01/27 03:21:22;;;;;;;29.17;16.67;;;;;;;;;;5016694;28;20025;-61
2021/01/27 03:23:53;;;;;;;25.73;15.75;;;;;;;;;;5016235;28;20037;-61
2021/01/27 03:26:33;;;;;;;23.27;16.27;;;;;;;;;;5016528;28;20038;-60
2021/01/27 03:29:01;;;;;;;25.65;16.35;;;;;;;;;;5048570;28;20378;-61
2021/01/27 03:31:27;;;;;;;27.50;16.77;;;;;;;;;;5016429;28;20097;-61
2021/01/27 03:33:53;;;;;;;25.25;16.25;;;;;;;;;;5015767;28;20500;-61
2021/01/27 03:36:19;;;;;;;22.10;15.82;;;;;;;;;;5016364;28;20048;-61
2021/01/27 03:38:47;;;;;;;26.00;15.90;;;;;;;;;;5015968;28;20030;-61
2021/01/27 03:41:21;;;;;;;24.85;15.52;;;;;;;;;;5015953;28;20018;-60
2021/01/27 03:43:53;;;;;;;24.88;15.60;;;;;;;;;;5016532;28;20549;-61
2021/01/27 03:46:23;;;;;;;24.00;16.27;;;;;;;;;;5016171;28;20026;-61
2021/01/27 03:48:53;;;;;;;24.30;15.60;;;;;;;;;;5016166;28;20026;-61
2021/01/27 03:51:20;;;;;;;32.05;21.02;;;;;;;;;;5016518;28;20034;-61
2021/01/27 03:53:46;;;;;;;25.05;15.98;;;;;;;;;;5016003;28;20060;-61
2021/01/27 03:56:16;;;;;;;24.00;15.48;;;;;;;;;;5015879;28;20026;-61
2021/01/27 03:58:43;;;;;;;23.88;15.95;;;;;;;;;;5015998;28;20022;-61
2021/01/27 04:01:11;;;;;;;26.98;15.98;;;;;;;;;;5015582;28;20096;-61
2021/01/27 04:03:38;;;;;;;26.25;15.73;;;;;;;;;;5015837;28;20129;-61
2021/01/27 04:06:05;;;;;;;28.02;16.95;;;;;;;;;;5015850;28;20034;-61
2021/01/27 04:08:31;;;;;;;27.90;16.38;;;;;;;;;;5015385;28;20401;-62
2021/01/27 04:10:59;;;;;;;23.70;15.25;;;;;;;;;;5015849;28;20030;-62
2021/01/27 04:13:25;;;;;;;28.35;16.80;;;;;;;;;;5015579;28;20076;-61
2021/01/27 04:15:51;;;;;;;25.75;16.02;;;;;;;;;;5015304;28;20053;-61
2021/01/27 04:18:17;;;;;;;23.35;15.68;;;;;;;;;;5015254;28;20032;-61
2021/01/27 04:20:43;;;;;;;25.80;16.35;;;;;;;;;;5015188;28;20041;-61
2021/01/27 04:23:09;;;;;;;23.83;16.02;;;;;;;;;;5015409;28;20366;-61
2021/01/27 04:25:35;;;;;;;24.55;16.25;;;;;;;;;;5015404;28;20026;-61
2021/01/27 04:28:02;;;;;;;23.58;15.93;;;;;;;;;;5015117;28;20026;-61
2021/01/27 04:30:30;;;;;;;26.50;16.02;;;;;;;;;;5015154;28;20029;-61
2021/01/27 04:32:57;;;;;;;27.17;17.15;;;;;;;;;;5015239;28;20030;-61
2021/01/27 04:35:23;;;;;;;28.55;17.15;;;;;;;;;;5015027;28;20037;-61
2021/01/27 04:37:49;;;;;;;25.83;16.92;;;;;;;;;;5014818;28;20030;-61
2021/01/27 04:40:26;;;;;;;28.02;16.20;;;;;;;;;;5015159;28;20033;-61
2021/01/27 04:42:52;;;;;;;26.35;16.92;;;;;;;;;;5014825;28;20160;-61
2021/01/27 04:45:19;;;;;;;29.00;18.00;;;;;;;;;;5015061;28;20504;-61
2021/01/27 04:47:45;;;;;;;27.05;17.70;;;;;;;;;;5015044;28;20104;-61
2021/01/27 04:50:21;;;;;;;28.95;17.52;;;;;;;;;;5014717;28;20041;-61
2021/01/27 04:52:56;;;;;;;28.30;16.90;;;;;;;;;;5015082;28;20049;-61
2021/01/27 04:55:30;;;;;;;26.55;16.33;;;;;;;;;;5014622;28;20069;-62
2021/01/27 04:58:03;;;;;;;27.65;17.48;;;;;;;;;;5014724;28;20496;-61
2021/01/27 05:00:35;;;;;;;27.00;17.10;;;;;;;;;;5015106;28;20160;-61
2021/01/27 05:03:04;;;;;;;27.67;16.77;;;;;;;;;;5014278;28;20030;-61
2021/01/27 05:05:32;;;;;;;26.60;16.60;;;;;;;;;;5014689;28;20101;-61
2021/01/27 05:08:04;;;;;;;25.20;16.35;;;;;;;;;;5014972;28;20026;-61
2021/01/27 05:10:30;;;;;;;;;;;;;;;;;;5014865;28;20057;-61
2021/01/27 05:13:00;;;;;;;25.27;16.40;;;;;;;;;;5014322;28;19913;-61
2021/01/27 05:15:26;;;;;;;25.80;16.90;;;;;;;;;;5014267;28;20490;-61
2021/01/27 05:17:53;;;;;;;27.08;16.60;;;;;;;;;;5014143;28;20033;-61
2021/01/27 05:20:20;;;;;;;24.25;16.15;;;;;;;;;;5014669;28;20073;-62
2021/01/27 05:22:46;;;;;;;23.92;16.20;;;;;;;;;;5014385;28;20026;-62
2021/01/27 05:25:37;;;;;;;26.25;16.25;;;;;;;;;;5013817;28;20022;-61
2021/01/27 05:28:04;;;;;;;24.27;16.33;;;;;;;;;;5014222;28;20057;-61
2021/01/27 05:30:41;;;;;;;27.05;16.73;;;;;;;;;;5014050;28;20472;-61
2021/01/27 05:33:07;;;;;;;25.40;16.58;;;;;;;;;;5013915;28;20037;-61
2021/01/27 05:35:35;;;;;;;25.52;16.58;;;;;;;;;;5013884;28;20030;-61
2021/01/27 05:38:17;;;;;;;25.30;15.90;;;;;;;;;;5013898;28;20354;-61
2021/01/27 05:40:43;;;;;;;29.50;16.50;;;;;;;;;;5014007;28;20030;-61
2021/01/27 05:43:27;;;;;;;26.23;17.98;;;;;;;;;;5014091;28;20084;-60
2021/01/27 05:45:53;;;;;;;27.45;18.00;;;;;;;;;;5013974;28;20029;-61
2021/01/27 05:48:32;;;;;;;27.98;17.15;;;;;;;;;;5014091;28;20022;-60
2021/01/27 05:51:07;;;;;;;29.10;18.17;;;;;;;;;;5014314;28;20018;-60
2021/01/27 05:53:34;;;;;;;27.98;18.40;;;;;;;;;;5013599;28;20050;-63
2021/01/27 05:56:05;;;;;;;28.05;17.92;;;;;;;;;;5013921;28;20089;-61
2021/01/27 05:58:35;;;;;;;26.35;16.95;;;;;;;;;;5013940;28;20465;-61
2021/01/27 06:01:27;;;;;;;26.10;16.85;;;;;;;;;;5013589;28;20466;-61
2021/01/27 06:04:11;;;;;;;28.42;17.20;;;;;;;;;;4991989;28;20425;-61
2021/01/27 06:06:43;;;;;;;25.42;16.50;;;;;;;;;;4992294;28;20026;-60
2021/01/27 06:09:09;;;;;;;27.65;17.25;;;;;;;;;;4991863;28;20038;-61
2021/01/27 06:11:35;;;;;;;28.90;16.55;;;;;;;;;;4991934;28;20027;-61
2021/01/27 06:14:17;;;;;;;25.77;15.60;;;;;;;;;;4991507;28;20111;-61
2021/01/27 06:16:45;;;;;;;25.17;16.40;;;;;;;;;;4995274;28;20109;-61
2021/01/27 06:19:18;;;;;;;23.83;16.27;;;;;;;;;;4995851;28;20084;-60
2021/01/27 06:22:01;;;;;;;29.73;16.83;;;;;;;;;;4995526;28;20559;-61
2021/01/27 06:24:27;;;;;;;26.13;15.23;;;;;;;;;;4995754;28;20034;-61
2021/01/27 06:27:12;;;;;;;26.35;16.58;;;;;;;;;;4995672;28;20039;-61
2021/01/27 06:29:57;;;;;;;24.35;15.85;;;;;;;;;;4995357;28;20097;-61
2021/01/27 06:32:25;;;;;;;25.80;16.27;;;;;;;;;;4995651;28;20038;-61
2021/01/27 06:35:10;;;;;;;27.15;16.33;;;;;;;;;;4995581;28;20498;-62
2021/01/27 06:38:05;;;;;;;26.38;16.85;;;;;;;;;;4995430;28;20450;-61
2021/01/27 06:40:43;;;;;;;29.70;17.38;;;;;;;;;;4973637;28;20046;-61
2021/01/27 06:43:41;;;;;;;28.20;16.20;;;;;;;;;;5002015;28;20029;-61
2021/01/27 06:46:13;;;;;;;21.50;14.10;;;;;;;;;;5003831;28;20026;-61
2021/01/27 06:48:40;;;;;;;29.60;18.02;;;;;;;;;;5002544;28;20029;-62
2021/01/27 06:51:09;;;;;;;34.40;20.65;;;;;;;;;;5003735;28;20073;-61
2021/01/27 06:53:35;;;;;;;24.23;15.30;;;;;;;;;;5004034;28;20177;-62
2021/01/27 06:56:20;;;;;;;27.52;17.10;;;;;;;;;;5002216;28;20026;-63
2021/01/27 06:58:51;;;;;;;32.85;19.88;;;;;;;;;;5004483;28;20521;-62
2021/01/27 07:01:26;;;;;;;38.13;21.48;;;;;;;;;;5004297;28;20038;-63
2021/01/27 07:03:56;;;;;;;33.42;20.60;;;;;;;;;;5003364;28;20492;-65
2021/01/27 07:06:40;;;;;;;36.88;23.33;;;;;;;;;;5002140;28;20601;-64
2021/01/27 07:09:22;;;;;;;38.70;22.40;;;;;;;;;;4999620;28;20118;-63
2021/01/27 07:12:09;;;;;;;34.60;21.25;;;;;;;;;;4994737;28;20462;-64
2021/01/27 07:14:46;;;;;;;32.40;18.67;;;;;;;;;;4999318;28;20042;-61
2021/01/27 07:17:18;;;;;;;34.47;20.65;;;;;;;;;;5030113;28;20033;-61
2021/01/27 07:19:56;;;;;;;26.10;15.75;;;;;;;;;;5043955;28;20464;-62
2021/01/27 07:22:27;;;;;;;26.02;16.73;;;;;;;;;;5044396;28;20029;-65
2021/01/27 07:25:05;;;;;;;27.13;17.90;;;;;;;;;;5041353;28;20017;-64
2021/01/27 07:27:34;;;;;;;28.13;11.82;;;;;;;;;;5043167;28;20358;-63
2021/01/27 07:30:04;;;;;;;24.98;16.35;;;;;;;;;;5044684;28;20168;-64
2021/01/27 07:32:33;;;;;;;22.05;14.77;;;;;;;;;;5045383;28;20017;-62
2021/01/27 07:35:12;;;;;;;22.45;15.10;;;;;;;;;;5044306;28;20026;-64
2021/01/27 07:37:41;;;;;;;24.73;16.30;;;;;;;;;;5042978;28;20096;-66
2021/01/27 07:40:16;;;;;;;26.85;16.13;;;;;;;;;;5043336;28;20029;-63
2021/01/27 07:42:47;;;;;;;24.52;15.73;;;;;;;;;;5043903;28;20025;-64
2021/01/27 07:45:24;;;;;;;25.48;16.52;;;;;;;;;;5040499;28;20507;-64
2021/01/27 07:47:57;;;;;;;22.75;14.48;;;;;;;;;;5043635;28;20445;-62
2021/01/27 07:50:24;;;;;;;23.33;15.10;;;;;;;;;;5040882;28;20050;-62
2021/01/27 07:52:53;;;;;;;25.50;15.63;;;;;;;;;;5032709;28;20044;-63
2021/01/27 07:55:23;;;;;;;21.95;14.68;;;;;;;;;;5034989;28;20374;-64
2021/01/27 07:58:10;;;;;;;28.15;17.00;;;;;;;;;;5035025;28;20373;-63
2021/01/27 08:00:42;;;;;;;25.90;17.40;;;;;;;;;;5034082;28;20496;-62
2021/01/27 08:03:41;;;;;;;28.48;16.80;;;;;;;;;;5033924;28;20041;-61
2021/01/27 08:06:16;;;;;;;25.30;15.80;;;;;;;;;;5030827;28;20034;-61
2021/01/27 08:08:48;;;;;;;25.02;16.75;;;;;;;;;;5031591;28;20511;-61
2021/01/27 08:11:16;;;;;;;24.77;16.67;;;;;;;;;;5029325;28;20461;-62
2021/01/27 08:13:43;;;;;;;25.85;16.65;;;;;;;;;;5030951;28;20581;-62
2021/01/27 08:16:14;;;;;;;29.58;18.25;;;;;;;;;;5031639;28;20120;-61
2021/01/27 08:18:59;;;;;;;26.70;17.43;;;;;;;;;;5032966;28;20489;-62
2021/01/27 08:21:27;;;;;;;21.83;14.60;;;;;;;;;;5032007;28;20262;-63
2021/01/27 08:23:54;;;;;;;25.13;15.30;;;;;;;;;;5032175;28;20029;-63
2021/01/27 08:26:39;;;;;;;26.02;16.42;;;;;;;;;;5038683;28;20026;-61
2021/01/27 08:29:08;;;;;;;32.30;17.48;;;;;;;;;;5037757;28;20034;-64
2021/01/27 08:31:34;;;;;;;24.27;15.80;;;;;;;;;;5040030;28;20072;-60
2021/01/27 08:34:00;;;;;;;22.75;15.55;;;;;;;;;;5040110;28;20052;-63
2021/01/27 08:36:29;;;;;;;24.23;15.10;;;;;;;;;;5036799;28;20042;-64
2021/01/27 08:38:58;;;;;;;25.23;16.30;;;;;;;;;;5030229;28;20484;-65
2021/01/27 08:41:43;;;;;;;23.92;15.98;;;;;;;;;;5035368;28;20485;-64
2021/01/27 08:44:24;;;;;;;27.73;16.23;;;;;;;;;;5034393;28;20029;-65
2021/01/27 08:46:51;;;;;;;24.38;15.63;;;;;;;;;;5033672;28;20028;-65
2021/01/27 08:49:36;;;;;;;26.00;17.05;;;;;;;;;;5034006;28;20021;-65
2021/01/27 08:52:22;;;;;;;26.90;17.20;;;;;;;;;;5032910;28;20358;-64
2021/01/27 08:54:50;;;;;;;27.95;17.67;;;;;;;;;;5033102;28;20102;-64
2021/01/27 08:57:21;;;;;;;23.20;15.25;;;;;;;;;;5034739;28;20049;-64
2021/01/27 08:59:51;;;;;;;22.92;15.30;;;;;;;;;;5035018;28;20030;-62
2021/01/27 09:02:36;;;;;;;27.45;18.10;;;;;;;;;;5034323;28;20079;-63
2021/01/27 09:05:22;;;;;;;27.77;17.42;;;;;;;;;;5034320;28;20061;-64
2021/01/27 09:07:59;;;;;;;26.00;16.23;;;;;;;;;;5034383;28;20033;-64
2021/01/27 09:10:33;;;;;;;23.65;14.02;;;;;;;;;;5033760;28;20025;-64
2021/01/27 09:13:00;;;;;;;22.42;13.20;;;;;;;;;;5034112;28;20530;-63
2021/01/27 09:15:30;;;;;;;45.08;22.50;;;;;;;;;;5034163;28;20044;-63
2021/01/27 09:17:57;;;;;;;18.50;12.75;;;;;;;;;;5032567;28;20356;-65
2021/01/27 09:20:26;;;;;;;22.60;14.35;;;;;;;;;;5034141;28;20022;-67
2021/01/27 09:22:57;;;;;;;24.85;15.73;;;;;;;;;;5034295;28;20056;-65
2021/01/27 09:25:24;;;;;;;23.27;14.55;;;;;;;;;;5034356;28;20033;-64
2021/01/27 09:27:59;;;;;;;21.35;14.02;;;;;;;;;;5034120;28;20350;-64
2021/01/27 09:30:26;;;;;;;20.92;12.68;;;;;;;;;;5033883;28;20025;-64
2021/01/27 09:33:07;;;;;;;21.67;13.85;;;;;;;;;;5033805;28;20068;-65
2021/01/27 09:35:33;;;;;;;20.30;12.80;;;;;;;;;;5033540;28;20041;-64
2021/01/27 09:38:00;;;;;;;21.27;14.57;;;;;;;;;;5033478;28;20070;-64
2021/01/27 09:40:32;;;;;;;22.60;14.57;;;;;;;;;;5033588;28;20033;-63
2021/01/27 09:42:59;;;;;;;22.88;14.45;;;;;;;;;;5033985;28;20480;-63
2021/01/27 09:45:29;;;;;;;28.20;17.00;;;;;;;;;;5033165;28;20584;-62
2021/01/27 09:47:57;;;;;;;31.42;18.67;;;;;;;;;;5033551;28;20071;-63
2021/01/27 09:50:23;;;;;;;20.38;13.20;;;;;;;;;;5033306;28;20028;-64
2021/01/27 09:52:51;;;;;;;26.60;16.90;;;;;;;;;;5033300;28;20017;-66
2021/01/27 09:55:19;;;;;;;22.83;14.55;;;;;;;;;;5033305;28;20479;-66
2021/01/27 09:57:47;;;;;;;24.20;14.77;;;;;;;;;;5034123;28;20036;-65
2021/01/27 10:00:24;;;;;;;23.20;14.55;;;;;;;;;;5033596;28;20026;-65
2021/01/27 10:02:50;;;;;;;29.15;17.83;;;;;;;;;;5034050;28;20025;-63
2021/01/27 10:05:33;;;;;;;30.75;17.73;;;;;;;;;;5033023;28;20041;-66
2021/01/27 10:08:00;;;;;;;26.23;16.02;;;;;;;;;;5032756;28;20022;-69
2021/01/27 10:10:26;;;;;;;18.90;12.73;;;;;;;;;;5033475;28;20041;-63
2021/01/27 10:12:57;;;;;;;22.63;14.85;;;;;;;;;;5032883;28;20465;-62
2021/01/27 10:15:26;;;;;;;20.48;13.32;;;;;;;;;;5030193;28;20041;-64
2021/01/27 10:18:09;;;;;;;22.48;14.27;;;;;;;;;;5032943;28;20022;-62
2021/01/27 10:20:36;;;;;;;29.67;17.60;;;;;;;;;;5033119;28;20026;-62
2021/01/27 10:23:05;;;;;;;20.55;13.40;;;;;;;;;;5032281;28;20030;-65
2021/01/27 10:25:31;;;;;;;20.63;13.18;;;;;;;;;;5032870;28;20129;-65
2021/01/27 10:28:07;;;;;;;21.65;8.98;;;;;;;;;;5030464;28;20416;-63
2021/01/27 10:30:48;;;;;;;24.60;13.43;;;;;;;;;;5032190;28;20025;-62
2021/01/27 10:33:30;;;;;;;19.63;11.95;;;;;;;;;;5032557;28;20350;-63
2021/01/27 10:35:56;;;;;;;28.00;15.73;;;;;;;;;;5031809;28;20022;-63
2021/01/27 10:38:23;;;;;;;20.55;13.45;;;;;;;;;;5031245;28;20083;-63
2021/01/27 10:41:10;;;;;;;22.83;15.40;;;;;;;;;;5031447;28;20022;-62
2021/01/27 10:43:36;;;;;;;19.45;13.15;;;;;;;;;;5062571;28;20037;-64
2021/01/27 10:46:20;;;;;;;22.98;15.70;;;;;;;;;;5030129;28;20350;-62
2021/01/27 10:48:46;;;;;;;22.20;14.40;;;;;;;;;;5031911;28;20543;-66
2021/01/27 10:51:12;;;;;;;19.75;14.07;;;;;;;;;;5035070;28;20049;-64
2021/01/27 10:53:41;;;;;;;18.98;12.57;;;;;;;;;;5047496;28;20060;-65
2021/01/27 10:56:07;;;;;;;20.40;14.45;;;;;;;;;;5042577;28;20381;-64
2021/01/27 10:58:33;;;;;;;22.55;13.68;;;;;;;;;;5031764;28;20040;-66
2021/01/27 11:00:59;;;;;;;19.77;12.77;;;;;;;;;;5031169;28;20093;-65
2021/01/27 11:03:25;;;;;;;21.83;12.82;;;;;;;;;;5034557;28;20075;-65
2021/01/27 11:05:51;;;;;;;20.52;13.45;;;;;;;;;;5035242;28;20022;-66
2021/01/27 11:08:27;;;;;;;23.98;13.88;;;;;;;;;;5036223;28;20423;-64
2021/01/27 11:10:57;;;;;;;18.38;12.38;;;;;;;;;;5049190;28;20028;-65
2021/01/27 11:13:23;;;;;;;27.80;17.33;;;;;;;;;;5055015;28;20361;-63
2021/01/27 11:15:49;;;;;;;21.25;13.60;;;;;;;;;;5055167;28;20025;-65
2021/01/27 11:18:16;;;;;;;20.80;13.38;;;;;;;;;;5055621;28;20057;-65
2021/01/27 11:20:42;;;;;;;20.42;13.32;;;;;;;;;;5055737;28;20033;-64
2021/01/27 11:23:08;;;;;;;19.58;12.65;;;;;;;;;;5056168;28;20474;-62
2021/01/27 11:25:34;;;;;;;17.48;11.40;;;;;;;;;;5055941;28;20029;-64
2021/01/27 11:28:00;;;;;;;18.20;11.73;;;;;;;;;;5042979;28;20036;-63
2021/01/27 11:30:27;;;;;;;23.00;12.85;;;;;;;;;;5035120;28;20052;-64
2021/01/27 11:32:54;;;;;;;20.10;12.45;;;;;;;;;;5035949;28;20057;-63
2021/01/27 11:35:20;;;;;;;22.63;14.30;;;;;;;;;;5035464;28;20476;-63
2021/01/27 11:37:47;;;;;;;28.60;16.05;;;;;;;;;;5035480;28;20056;-63
2021/01/27 11:40:13;;;;;;;23.42;14.05;;;;;;;;;;5040166;28;20017;-64
2021/01/27 11:42:39;;;;;;;23.00;14.07;;;;;;;;;;5036258;28;20034;-65
2021/01/27 11:45:06;;;;;;;22.60;12.90;;;;;;;;;;5036009;28;20365;-64
2021/01/27 11:47:32;;;;;;;19.35;12.02;;;;;;;;;;5035647;28;20535;-66
2021/01/27 11:49:58;;;;;;;21.52;12.80;;;;;;;;;;5035270;28;20049;-63
2021/01/27 11:52:24;;;;;;;20.45;13.75;;;;;;;;;;5036080;28;20089;-64
2021/01/27 11:55:07;;;;;;;26.08;15.30;;;;;;;;;;5047686;28;20049;-63
2021/01/27 11:57:42;;;;;;;25.27;14.65;;;;;;;;;;5015092;28;20026;-63
2021/01/27 12:00:08;;;;;;;26.15;15.70;;;;;;;;;;5015631;28;20030;-64
2021/01/27 12:02:34;;;;;;;21.48;12.52;;;;;;;;;;5015652;28;20084;-63
2021/01/27 12:05:00;;;;;;;21.00;13.27;;;;;;;;;;5015417;28;20037;-63
2021/01/27 12:07:26;;;;;;;25.00;14.85;;;;;;;;;;5015630;28;20473;-65
2021/01/27 12:09:52;;;;;;;18.35;12.35;;;;;;;;;;5015258;28;20470;-62
2021/01/27 12:12:18;;;;;;;17.75;11.43;;;;;;;;;;5015267;28;20056;-64
2021/01/27 12:14:45;;;;;;;22.48;13.48;;;;;;;;;;5015152;28;20076;-64
2021/01/27 12:17:11;;;;;;;22.10;12.45;;;;;;;;;;5016039;28;20060;-64
2021/01/27 12:19:40;;;;;;;21.10;11.57;;;;;;;;;;5034608;28;20033;-64
2021/01/27 12:22:06;;;;;;;21.75;13.30;;;;;;;;;;5035303;28;20036;-64
2021/01/27 12:24:33;;;;;;;21.08;13.23;;;;;;;;;;5034833;28;20022;-64
2021/01/27 12:26:59;;;;;;;23.35;12.57;;;;;;;;;;5034621;28;20083;-63
2021/01/27 12:29:25;;;;;;;18.23;11.80;;;;;;;;;;5035095;28;20025;-64
2021/01/27 12:31:52;;;;;;;19.27;11.55;;;;;;;;;;5034454;28;20017;-63
2021/01/27 12:34:19;;;;;;;21.90;13.15;;;;;;;;;;5034584;28;20037;-64
2021/01/27 12:36:45;;;;;;;26.40;13.20;;;;;;;;;;5034678;28;20028;-64
2021/01/27 12:39:11;;;;;;;17.25;10.77;;;;;;;;;;5033953;28;20108;-64
2021/01/27 12:41:38;;;;;;;17.60;10.52;;;;;;;;;;5034883;28;20029;-62
2021/01/27 12:44:05;;;;;;;14.52;7.43;;;;;;;;;;5029237;28;20534;-63
2021/01/27 12:46:31;;;;;;;19.65;10.27;;;;;;;;;;5034574;28;20056;-63
2021/01/27 12:48:57;;;;;;;17.75;10.65;;;;;;;;;;5034407;28;20057;-63
2021/01/27 12:51:23;;;;;;;19.95;11.52;;;;;;;;;;5033471;28;20022;-64
2021/01/27 12:53:49;;;;;;;22.52;12.27;;;;;;;;;;5034516;28;20045;-64
2021/01/27 12:56:16;;;;;;;23.65;12.55;;;;;;;;;;5034393;28;20076;-65
2021/01/27 12:58:42;;;;;;;18.00;11.48;;;;;;;;;;5032987;28;20025;-62
2021/01/27 13:01:08;;;;;;;17.42;11.02;;;;;;;;;;5034601;28;20025;-64
2021/01/27 13:03:34;;;;;;;20.30;11.63;;;;;;;;;;5033718;28;20025;-62
2021/01/27 13:06:00;;;;;;;26.27;13.85;;;;;;;;;;5034193;28;20484;-66
2021/01/27 13:08:26;;;;;;;26.60;14.98;;;;;;;;;;5034114;28;20065;-65
2021/01/27 13:10:52;;;;;;;30.90;16.27;;;;;;;;;;5033492;28;20021;-64
2021/01/27 13:13:18;;;;;;;18.42;11.95;;;;;;;;;;5033811;28;20022;-67
2021/01/27 13:15:44;;;;;;;22.88;13.60;;;;;;;;;;5034023;28;20397;-63
2021/01/27 13:18:10;;;;;;;19.15;11.43;;;;;;;;;;5034037;28;20079;-66
2021/01/27 13:20:37;;;;;;;21.77;12.50;;;;;;;;;;5032835;28;20017;-64
2021/01/27 13:23:04;;;;;;;23.98;13.50;;;;;;;;;;5034405;28;20369;-65
2021/01/27 13:25:30;;;;;;;17.70;11.90;;;;;;;;;;5033694;28;20037;-64
2021/01/27 13:27:56;;;;;;;17.25;10.73;;;;;;;;;;5033799;28;20026;-63
2021/01/27 13:30:23;;;;;;;17.55;11.05;;;;;;;;;;5033227;28;20152;-62
2021/01/27 13:32:49;;;;;;;19.70;11.55;;;;;;;;;;5033768;28;20049;-64
2021/01/27 13:35:17;;;;;;;19.48;11.23;;;;;;;;;;5033466;28;20044;-65
2021/01/27 13:37:43;;;;;;;17.77;10.80;;;;;;;;;;5033433;28;20439;-65
2021/01/27 13:40:10;;;;;;;19.98;11.65;;;;;;;;;;5033437;28;20465;-62
2021/01/27 13:42:36;;;;;;;21.58;12.45;;;;;;;;;;5033829;28;20034;-64
2021/01/27 13:45:04;;;;;;;22.05;11.20;;;;;;;;;;5033789;28;20033;-63
2021/01/27 13:47:30;;;;;;;21.08;11.88;;;;;;;;;;5033147;28;20021;-62
2021/01/27 13:49:56;;;;;;;20.45;11.70;;;;;;;;;;5033326;28;20285;-64
2021/01/27 13:52:22;;;;;;;20.67;12.90;;;;;;;;;;5033146;28;20033;-64
2021/01/27 13:54:48;;;;;;;19.50;12.30;;;;;;;;;;5033748;28;20060;-64
2021/01/27 13:57:14;;;;;;;20.83;11.98;;;;;;;;;;5032963;28;20029;-65
2021/01/27 13:59:40;;;;;;;19.30;12.30;;;;;;;;;;5031693;28;20049;-66
2021/01/27 14:02:06;;;;;;;21.75;13.15;;;;;;;;;;5031779;28;20393;-65
2021/01/27 14:04:32;;;;;;;24.17;15.30;;;;;;;;;;5031863;28;20208;-63
2021/01/27 14:06:59;;;;;;;28.05;14.18;;;;;;;;;;5022136;28;20022;-67
2021/01/27 14:09:25;;;;;;;27.13;14.40;;;;;;;;;;5031673;28;20021;-64
2021/01/27 14:11:51;;;;;;;24.27;14.50;;;;;;;;;;5033520;28;20025;-64
2021/01/27 14:14:17;;;;;;;29.98;17.20;;;;;;;;;;5032077;28;20409;-64
2021/01/27 14:16:44;;;;;;;32.78;18.05;;;;;;;;;;5033290;28;20029;-64
2021/01/27 14:19:10;;;;;;;35.92;18.67;;;;;;;;;;5032864;28;20037;-65
2021/01/27 14:21:36;;;;;;;31.48;17.25;;;;;;;;;;5032426;28;20040;-64
2021/01/27 14:24:02;;;;;;;31.02;16.40;;;;;;;;;;5033390;28;20527;-68
2021/01/27 14:26:28;;;;;;;25.02;14.45;;;;;;;;;;5032462;28;20040;-63
2021/01/27 14:28:54;;;;;;;27.67;16.17;;;;;;;;;;5031354;28;20029;-63
2021/01/27 14:31:20;;;;;;;28.23;15.85;;;;;;;;;;5031739;28;20028;-66
2021/01/27 14:33:46;;;;;;;39.03;17.65;;;;;;;;;;5030556;28;20038;-64